SLCB/CBB METAR and TAF weather

Enter ICAO airport designator
Station Type Date Time Source
SLCB METAR 2019/10/19 07:00 UTC NOAA

SLCB 190700Z 24003KT 9999 FEW027 SCT200 15/06 Q1025


Station Type Date Time Source
SLCB Decoded METAR 2019/10/19 07:00 UTC NOAA

Cochabamba, Bolivia (SLCB) 17-25S 066-11W 2570M
Oct 19, 2019 - 03:00 AM EDT / 2019.10.19 0700 UTC
Wind: from the WSW (240 degrees) at 3 MPH (3 KT):0
Visibility: greater than 7 mile(s):0
Sky conditions: partly cloudy
Temperature: 59 F (15 C)
Dew Point: 42 F (6 C)
Relative Humidity: 54%
Pressure (altimeter): 30.27 in. Hg (1025 hPa)
ob: SLCB 190700Z 24003KT 9999 FEW027 SCT200 15/06 Q1025
cycle: 7

Station Type Date Time Source
SLCB TAF 2019/10/19 06:21 UTC NOAA

TAF TAF SLCB 190400Z 1906/2006 00000KT 9999 SCT030 SCT070 TX27/1919Z TN12 /1911Z
BECMG 1915/1917 24010KT FEW033 FEW036CB SCT070

Example: see airport list